Time;durP1;ratioP1;P1;durP2;ratioP2;P2;SDS_P1;SDS_P2;PMS_P1;PMS_P2;Temp;Humidity;BMP_temperature;BMP_pressure;BME280_temperature;BME280_humidity;BME280_pressure;Samples;Min_cycle;Max_cycle;Signal;HPM_P1;HPM_P2
2023/07/07 00:04:59;;;;;;;;;;;;;;;26.08;100.00;100322.41;5075691;28;19965;-71
2023/07/07 00:07:24;;;;;;;;;;;;;;;26.17;100.00;100334.63;5057321;28;19916;-71
2023/07/07 00:12:52;;;;;;;;;;;;;;;26.16;100.00;100374.72;5075359;28;19958;-71
2023/07/07 00:18:26;;;;;;;;;;;;;;;26.27;100.00;100319.84;5075257;28;19930;-71
2023/07/07 00:20:52;;;;;;;;;;;;;;;26.64;100.00;100260.88;5057298;28;19912;-71
2023/07/07 00:23:17;;;;;;;;;;;;;;;26.26;100.00;100214.75;5075027;28;19912;-71
2023/07/07 00:25:42;;;;;;;;;;;;;;;26.27;100.00;100216.38;5075156;28;19916;-71
2023/07/07 00:31:10;;;;;;;;;;;;;;;26.18;100.00;100245.88;5075074;28;19931;-71
2023/07/07 00:33:35;;;;;;;;;;;;;;;26.20;100.00;100230.09;5074843;28;20300;-71
2023/07/07 00:36:01;;;;;;;;;;;;;;;26.15;100.00;100253.13;5075515;28;20003;-71
2023/07/07 00:38:26;;;;;;;;;;;;;;;26.17;100.00;100240.78;5074886;28;19909;-71
2023/07/07 00:40:52;;;;;;;;;;;;;;;26.22;100.00;100228.16;5056144;28;19979;-71
2023/07/07 00:43:19;;;;;;;;;;;;;;;26.41;100.00;100207.31;5056531;28;20330;-70
2023/07/07 00:45:44;;;;;;;;;;;;;;;26.41;100.00;100187.25;5056847;28;19970;-71
2023/07/07 00:48:14;;;;;;;;;;;;;;;26.28;100.00;100191.13;5074580;28;19913;-71
2023/07/07 00:53:45;;;;;;;;;;;;;;;26.48;100.00;100156.25;5074958;28;19915;-69
2023/07/07 00:56:13;;;;;;;;;;;;;;;26.48;100.00;100143.19;5056006;28;19959;-69
2023/07/07 00:58:41;;;;;;;;;;;;;;;26.32;100.00;100148.16;5074742;28;20336;-69
2023/07/07 01:04:12;;;;;;;;;;;;;;;26.29;100.00;100247.50;5074420;28;19994;-69
2023/07/07 01:06:39;;;;;;;;;;;;;;;26.25;100.00;100215.69;5073977;28;19913;-70
2023/07/07 01:09:06;;;;;;;;;;;;;;;26.19;100.00;100218.00;5074124;28;19916;-70
2023/07/07 01:11:31;;;;;;;;;;;;;;;26.08;100.00;100223.34;5074220;28;19917;-70
2023/07/07 01:17:13;;;;;;;;;;;;;;;26.05;100.00;100258.28;5074190;28;19915;-69
2023/07/07 01:19:57;;;;;;;;;;;;;;;26.10;100.00;100276.19;5056217;28;19987;-69
2023/07/07 01:22:34;;;;;;;;;;;;;;;26.31;100.00;100258.63;5074091;28;19999;-69
2023/07/07 01:25:19;;;;;;;;;;;;;;;26.41;100.00;100264.69;5073938;28;19912;-69
2023/07/07 01:30:51;;;;;;;;;;;;;;;26.42;100.00;100246.28;5073949;28;20337;-69
2023/07/07 01:33:18;;;;;;;;;;;;;;;26.40;100.00;100236.97;5073477;28;20290;-69
2023/07/07 01:35:43;;;;;;;;;;;;;;;26.50;100.00;100222.94;5073341;28;19962;-69
2023/07/07 01:38:29;;;;;;;;;;;;;;;26.43;100.00;100211.44;5073551;28;19916;-69
2023/07/07 01:41:09;;;;;;;;;;;;;;;26.40;100.00;100210.88;5072565;28;19913;-69
2023/07/07 01:43:42;;;;;;;;;;;;;;;26.26;100.00;100227.78;5071287;28;20019;-71
2023/07/07 01:46:15;;;;;;;;;;;;;;;26.11;100.00;100223.91;5055366;28;19908;-71
2023/07/07 01:48:53;;;;;;;;;;;;;;;26.46;100.00;100246.84;5073625;28;19920;-71
2023/07/07 01:54:21;;;;;;;;;;;;;;;26.21;100.00;100242.16;5073439;28;19923;-70
2023/07/07 01:56:48;;;;;;;;;;;;;;;26.12;100.00;100253.41;5072715;28;20353;-70
2023/07/07 01:59:15;;;;;;;;;;;;;;;26.28;100.00;100298.88;5073209;28;20021;-70
2023/07/07 02:01:40;;;;;;;;;;;;;;;26.03;100.00;100322.78;5073258;28;19912;-70
2023/07/07 02:07:08;;;;;;;;;;;;;;;26.19;100.00;100348.38;5073451;28;19916;-70
2023/07/07 02:12:36;;;;;;;;;;;;;;;25.37;100.00;100602.75;5077279;28;19931;-69
2023/07/07 02:15:02;;;;;;;;;;;;;;;24.57;100.00;100865.69;5061653;28;20360;-69
2023/07/07 02:17:28;;;;;;;;;;;;;;;24.60;100.00;101185.44;5073135;28;19957;-69
2023/07/07 02:19:54;;;;;;;;;;;;;;;24.89;100.00;101514.88;5072951;28;19951;-69
2023/07/07 02:25:22;;;;;;;;;;;;;;;25.05;100.00;101647.53;5072959;28;19916;-70
2023/07/07 02:27:47;;;;;;;;;;;;;;;24.80;100.00;101497.22;5054730;28;19912;-70
2023/07/07 02:30:12;;;;;;;;;;;;;;;24.98;100.00;101419.75;5072903;28;19912;-70
2023/07/07 02:32:38;;;;;;;;;;;;;;;24.91;100.00;101372.47;5054823;28;19912;-70
2023/07/07 02:35:06;;;;;;;;;;;;;;;24.89;100.00;101376.94;5054706;28;19943;-70
2023/07/07 02:37:31;;;;;;;;;;;;;;;24.76;100.00;101399.50;5054639;28;19971;-70
2023/07/07 02:39:56;;;;;;;;;;;;;;;24.90;100.00;101410.66;5072586;28;19952;-70
2023/07/07 02:42:22;;;;;;;;;;;;;;;25.04;100.00;101446.22;5054471;28;20303;-70
2023/07/07 02:47:49;;;;;;;;;;;;;;;24.99;100.00;101417.06;5072669;28;20389;-70
2023/07/07 02:50:14;;;;;;;;;;;;;;;24.89;100.00;101429.00;5054076;28;19916;-70
2023/07/07 02:52:40;;;;;;;;;;;;;;;25.28;100.00;101456.81;5071724;28;19961;-70
2023/07/07 02:55:05;;;;;;;;;;;;;;;25.42;100.00;101449.78;5072682;28;19995;-71
2023/07/07 03:00:33;;;;;;;;;;;;;;;26.05;100.00;101378.63;5072618;28;19919;-69
2023/07/07 03:03:00;;;;;;;;;;;;;;;26.09;100.00;101255.72;5071451;28;20471;-69
2023/07/07 03:05:26;;;;;;;;;;;;;;;25.96;100.00;101186.28;5054455;28;20278;-70
2023/07/07 03:11:05;;;;;;;;;;;;;;;26.21;100.00;101100.97;5069838;28;20378;-69
2023/07/07 03:13:30;;;;;;;;;;;;;;;26.13;100.00;101058.13;5072335;28;19924;-69
2023/07/07 03:19:00;;;;;;;;;;;;;;;26.23;100.00;101012.16;5072253;28;20014;-69
2023/07/07 03:24:28;;;;;;;;;;;;;;;26.07;100.00;100985.63;5072151;28;19978;-70
2023/07/07 03:29:56;;;;;;;;;;;;;;;26.16;100.00;100957.06;5072118;28;19915;-70
2023/07/07 03:35:24;;;;;;;;;;;;;;;26.25;100.00;100948.50;5072277;28;20062;-71
2023/07/07 03:40:52;;;;;;;;;;;;;;;26.07;100.00;100955.13;5072259;28;19971;-69
2023/07/07 03:43:18;;;;;;;;;;;;;;;26.31;100.00;100962.84;5053615;28;19917;-68
2023/07/07 03:45:44;;;;;;;;;;;;;;;26.10;100.00;100941.88;5072133;28;20401;-70
2023/07/07 03:48:09;;;;;;;;;;;;;;;26.29;100.00;100954.31;5071888;28;19913;-68
2023/07/07 03:50:34;;;;;;;;;;;;;;;26.24;100.00;100956.47;5072018;28;19986;-69
2023/07/07 03:52:59;;;;;;;;;;;;;;;26.39;100.00;100960.47;5072095;28;20404;-68
2023/07/07 03:55:25;;;;;;;;;;;;;;;26.32;100.00;100956.69;5071843;28;19919;-69
2023/07/07 03:57:50;;;;;;;;;;;;;;;26.25;100.00;100947.66;5053751;28;20282;-68
2023/07/07 04:00:16;;;;;;;;;;;;;;;26.20;100.00;100944.59;5071763;28;19955;-69
2023/07/07 04:05:45;;;;;;;;;;;;;;;26.62;100.00;100934.22;5075394;28;19915;-68
2023/07/07 04:08:10;;;;;;;;;;;;;;;26.76;100.00;100907.06;5074613;28;20009;-68
2023/07/07 04:10:35;;;;;;;;;;;;;;;26.47;100.00;100879.81;5074930;28;19971;-69
2023/07/07 04:16:13;;;;;;;;;;;;;;;26.71;100.00;100880.50;5075051;28;19991;-67
2023/07/07 04:18:38;;;;;;;;;;;;;;;26.77;100.00;100876.56;5074618;28;19916;-67
2023/07/07 04:21:06;;;;;;;;;;;;;;;26.82;100.00;100858.78;5074888;28;19919;-67
2023/07/07 04:23:32;;;;;;;;;;;;;;;26.89;100.00;100839.88;5057047;28;19916;-68
2023/07/07 04:29:00;;;;;;;;;;;;;;;27.06;100.00;100810.56;5074871;28;19915;-68
2023/07/07 04:31:27;;;;;;;;;;;;;;;27.07;100.00;100800.97;5074605;28;19912;-68
2023/07/07 04:33:53;;;;;;;;;;;;;;;27.07;100.00;100783.50;5074658;28;19920;-69
2023/07/07 04:36:19;;;;;;;;;;;;;;;27.13;100.00;100777.78;5074952;28;20288;-68
2023/07/07 04:38:44;;;;;;;;;;;;;;;27.26;100.00;100775.78;5074419;28;19935;-71
2023/07/07 04:41:10;;;;;;;;;;;;;;;27.53;100.00;100751.72;5074696;28;19935;-68
2023/07/07 04:43:36;;;;;;;;;;;;;;;27.39;100.00;100734.59;5090053;28;19967;-67
2023/07/07 04:46:02;;;;;;;;;;;;;;;27.40;100.00;100720.59;5074702;28;19935;-69
2023/07/07 04:51:30;;;;;;;;;;;;;;;27.75;100.00;100714.09;5074756;28;19916;-69
2023/07/07 04:53:55;;;;;;;;;;;;;;;27.58;100.00;100722.56;5074866;28;20342;-70
2023/07/07 04:56:21;;;;;;;;;;;;;;;27.59;100.00;100722.47;5056738;28;19962;-69
2023/07/07 04:58:48;;;;;;;;;;;;;;;27.67;100.00;100717.38;5074568;28;20394;-71
2023/07/07 05:04:16;;;;;;;;;;;;;;;27.90;100.00;100720.59;5074418;28;19958;-69
2023/07/07 05:06:41;;;;;;;;;;;;;;;28.20;100.00;100718.75;5074225;28;19952;-70
2023/07/07 05:09:07;;;;;;;;;;;;;;;28.19;100.00;100714.44;5074237;28;19916;-70
2023/07/07 05:11:33;;;;;;;;;;;;;;;28.30;100.00;100705.66;5074439;28;19974;-69
2023/07/07 05:13:59;;;;;;;;;;;;;;;28.05;100.00;100701.78;5074215;28;19913;-69
2023/07/07 05:16:25;;;;;;;;;;;;;;;28.20;100.00;100715.28;5073955;28;19917;-69
2023/07/07 05:18:51;;;;;;;;;;;;;;;28.33;100.00;100705.34;5055509;28;20393;-70
2023/07/07 05:24:19;;;;;;;;;;;;;;;27.66;100.00;100702.66;5073981;28;19916;-68
2023/07/07 05:26:44;;;;;;;;;;;;;;;28.01;100.00;100712.63;5073961;28;19912;-69
2023/07/07 05:29:09;;;;;;;;;;;;;;;28.30;100.00;100697.81;5055714;28;19962;-69
2023/07/07 05:31:35;;;;;;;;;;;;;;;28.47;100.00;100694.47;5073439;28;19920;-69
2023/07/07 05:37:04;;;;;;;;;;;;;;;28.63;100.00;100671.19;5073730;28;19961;-68
2023/07/07 05:39:29;;;;;;;;;;;;;;;28.48;100.00;100653.44;5055202;28;19913;-69
2023/07/07 05:41:55;;;;;;;;;;;;;;;28.38;100.00;100661.31;5054915;28;19963;-69
2023/07/07 05:44:20;;;;;;;;;;;;;;;28.70;100.00;100667.03;5074010;28;20267;-68
2023/07/07 05:46:45;;;;;;;;;;;;;;;28.65;100.00;100647.47;5073904;28;19919;-70
2023/07/07 05:49:10;;;;;;;;;;;;;;;28.72;100.00;100659.84;5073637;28;19967;-69
2023/07/07 05:51:36;;;;;;;;;;;;;;;28.82;100.00;100665.91;5055853;28;20274;-70
2023/07/07 05:54:01;;;;;;;;;;;;;;;28.49;100.00;100653.28;5073914;28;20381;-70
2023/07/07 05:59:30;;;;;;;;;;;;;;;28.92;100.00;100660.66;5073646;28;20413;-71
2023/07/07 06:01:55;;;;;;;;;;;;;;;29.23;100.00;100659.44;5054673;28;19913;-69
2023/07/07 06:04:20;;;;;;;;;;;;;;;29.02;100.00;100641.28;5055029;28;19920;-71
2023/07/07 06:06:46;;;;;;;;;;;;;;;29.17;100.00;100649.53;5055127;28;20286;-69
2023/07/07 06:12:14;;;;;;;;;;;;;;;29.17;100.00;100591.06;5072945;28;19924;-70
2023/07/07 06:14:39;;;;;;;;;;;;;;;29.34;100.00;100603.34;5072690;28;20282;-71
2023/07/07 06:17:04;;;;;;;;;;;;;;;29.39;100.00;100601.13;5055011;28;19916;-71
2023/07/07 06:19:30;;;;;;;;;;;;;;;29.42;100.00;100600.81;5071535;28;19912;-70
2023/07/07 06:21:55;;;;;;;;;;;;;;;29.47;100.00;100606.47;5054774;28;19913;-70
2023/07/07 06:27:23;;;;;;;;;;;;;;;29.24;100.00;100634.06;5072550;28;19942;-71
2023/07/07 06:32:50;;;;;;;;;;;;;;;29.70;100.00;100620.78;5072719;28;19916;-70
2023/07/07 06:35:15;;;;;;;;;;;;;;;29.55;100.00;100601.31;5053847;28;20302;-70
2023/07/07 06:37:42;;;;;;;;;;;;;;;30.16;100.00;100606.63;5072199;28;19913;-70
2023/07/07 06:40:07;;;;;;;;;;;;;;;30.24;100.00;100620.63;5072403;28;19958;-70
2023/07/07 06:42:33;;;;;;;;;;;;;;;30.41;100.00;100611.91;5056851;28;19916;-70
2023/07/07 06:44:58;;;;;;;;;;;;;;;30.59;100.00;100617.09;5078325;28;19918;-70
2023/07/07 06:47:23;;;;;;;;;;;;;;;30.06;100.00;100617.22;5076074;28;20006;-70
2023/07/07 06:49:49;;;;;;;;;;;;;;;30.04;100.00;100615.69;5072186;28;19927;-70
2023/07/07 06:52:14;;;;;;;;;;;;;;;31.00;100.00;100626.84;5053842;28;19918;-70
2023/07/07 06:54:39;;;;;;;;;;;;;;;30.82;100.00;100620.84;5072728;28;19914;-70
2023/07/07 06:57:04;;;;;;;;;;;;;;;30.34;100.00;100621.38;5054180;28;19916;-70
2023/07/07 06:59:30;;;;;;;;;;;;;;;30.20;100.00;100626.31;5071105;28;19913;-70
2023/07/07 07:01:55;;;;;;;;;;;;;;;30.36;100.00;100626.47;5071879;28;19959;-70
2023/07/07 07:04:20;;;;;;;;;;;;;;;30.37;100.00;100620.25;5072510;28;19936;-70
2023/07/07 07:06:45;;;;;;;;;;;;;;;30.65;100.00;100619.94;5054280;28;20299;-71
2023/07/07 07:09:11;;;;;;;;;;;;;;;30.52;100.00;100609.03;5053668;28;19923;-71
2023/07/07 07:11:36;;;;;;;;;;;;;;;30.84;100.00;100611.03;5053536;28;19913;-70
2023/07/07 07:14:02;;;;;;;;;;;;;;;31.04;100.00;100616.88;5072558;28;19913;-70
2023/07/07 07:19:29;;;;;;;;;;;;;;;30.55;100.00;100598.22;5072195;28;20345;-69
2023/07/07 07:21:55;;;;;;;;;;;;;;;30.71;100.00;100597.47;5071559;28;19999;-70
2023/07/07 07:24:21;;;;;;;;;;;;;;;30.74;100.00;100599.81;5071893;28;19935;-69
2023/07/07 07:26:47;;;;;;;;;;;;;;;31.04;100.00;100603.75;5072348;28;19915;-70
2023/07/07 07:32:15;;;;;;;;;;;;;;;31.14;100.00;100557.91;5072052;28;19966;-69
2023/07/07 07:34:40;;;;;;;;;;;;;;;31.15;100.00;100566.63;5071832;28;19916;-70
2023/07/07 07:37:06;;;;;;;;;;;;;;;31.30;100.00;100562.38;5054124;28;19939;-70
2023/07/07 07:39:31;;;;;;;;;;;;;;;31.01;100.00;100567.25;5076202;28;20371;-70
2023/07/07 07:41:56;;;;;;;;;;;;;;;31.49;100.00;100551.63;5057608;28;20010;-70
2023/07/07 07:44:23;;;;;;;;;;;;;;;31.52;100.00;100543.38;5076032;28;20435;-70
2023/07/07 07:46:49;;;;;;;;;;;;;;;31.21;100.00;100516.88;5075844;28;19912;-69
2023/07/07 07:52:18;;;;;;;;;;;;;;;32.30;100.00;100547.97;5076065;28;20365;-69
2023/07/07 07:54:43;;;;;;;;;;;;;;;32.38;100.00;100555.03;5075300;28;20275;-69
2023/07/07 07:57:09;;;;;;;;;;;;;;;31.70;100.00;100554.56;5057473;28;19919;-69
2023/07/07 07:59:34;;;;;;;;;;;;;;;31.99;100.00;100567.28;5075077;28;19920;-69
2023/07/07 08:05:03;;;;;;;;;;;;;;;31.68;100.00;100587.28;5075555;28;19923;-69
2023/07/07 08:07:28;;;;;;;;;;;;;;;31.86;100.00;100591.41;5074952;28;20003;-69
2023/07/07 08:09:54;;;;;;;;;;;;;;;32.02;100.00;100582.72;5075269;28;19919;-69
2023/07/07 08:12:19;;;;;;;;;;;;;;;32.41;100.00;100587.09;5074894;28;20399;-69
2023/07/07 08:17:47;;;;;;;;;;;;;;;32.14;100.00;100553.28;5075286;28;20004;-69
2023/07/07 08:20:16;;;;;;;;;;;;;;;32.85;100.00;100557.66;5074724;28;19944;-69
2023/07/07 08:22:41;;;;;;;;;;;;;;;32.48;100.00;100533.78;5057644;28;19994;-69
2023/07/07 08:25:07;;;;;;;;;;;;;;;32.68;100.00;100529.75;5057029;28;19912;-69
2023/07/07 08:30:35;;;;;;;;;;;;;;;33.08;100.00;100495.31;5075023;28;19915;-70
2023/07/07 08:33:01;;;;;;;;;;;;;;;33.37;100.00;100497.22;5074669;28;19912;-69
2023/07/07 08:35:26;;;;;;;;;;;;;;;33.47;100.00;100480.19;5074891;28;19916;-69
2023/07/07 08:37:51;;;;;;;;;;;;;;;33.35;100.00;100464.94;5056974;28;19920;-70
2023/07/07 08:40:18;;;;;;;;;;;;;;;33.86;100.00;100466.78;5075359;28;20015;-70
2023/07/07 08:42:44;;;;;;;;;;;;;;;33.41;100.00;100449.22;5074699;28;19970;-70
2023/07/07 08:45:21;;;;;;;;;;;;;;;32.58;100.00;100432.50;5056774;28;19919;-70
2023/07/07 08:50:58;;;;;;;;;;;;;;;33.13;100.00;100430.50;5074176;28;19931;-69
2023/07/07 08:53:33;;;;;;;;;;;;;;;33.34;100.00;100421.91;5074768;28;19912;-69
2023/07/07 08:56:17;;;;;;;;;;;;;;;32.49;100.00;100403.75;5074435;28;20023;-69
2023/07/07 08:58:55;;;;;;;;;;;;;;;33.14;100.00;100412.88;5074440;28;19913;-71
2023/07/07 09:01:26;;;;;;;;;;;;;;;33.29;100.00;100411.09;5089907;28;20007;-70
2023/07/07 09:03:57;;;;;;;;;;;;;;;32.84;100.00;100396.06;5074786;28;19933;-70
2023/07/07 09:06:38;;;;;;;;;;;;;;;32.78;100.00;100396.81;5074184;28;19977;-69
2023/07/07 09:12:16;;;;;;;;;;;;;;;33.82;100.00;100410.91;5074022;28;19966;-69
2023/07/07 09:17:49;;;;;;;;;;;;;;;34.05;100.00;100400.28;5074463;28;20282;-72
2023/07/07 09:20:17;;;;;;;;;;;;;;;33.58;100.00;100392.69;5074057;28;19913;-72
2023/07/07 09:22:45;;;;;;;;;;;;;;;34.45;100.00;100398.91;5056277;28;20381;-71
2023/07/07 09:25:17;;;;;;;;;;;;;;;33.72;100.00;100393.69;5056211;28;19916;-71
2023/07/07 09:27:45;;;;;;;;;;;;;;;33.93;100.00;100391.97;5073166;28;20382;-72
2023/07/07 09:30:10;;;;;;;;;;;;;;;33.37;100.00;100371.44;5074346;28;19916;-72
2023/07/07 09:32:35;;;;;;;;;;;;;;;33.15;100.00;100354.69;5074400;28;20401;-71
2023/07/07 09:35:01;;;;;;;;;;;;;;;33.57;100.00;100375.25;5074102;28;19917;-72
2023/07/07 09:37:36;;;;;;;;;;;;;;;33.18;100.00;100369.31;5073418;28;19912;-73
2023/07/07 09:40:13;;;;;;;;;;;;;;;33.02;100.00;100358.94;5074253;28;19921;-72
2023/07/07 09:42:38;;;;;;;;;;;;;;;33.71;100.00;100373.59;5073971;28;19970;-72
2023/07/07 09:45:08;;;;;;;;;;;;;;;33.15;100.00;100362.59;5089371;28;20003;-72
2023/07/07 09:47:40;;;;;;;;;;;;;;;34.05;100.00;100373.88;5055428;28;20070;-72
2023/07/07 09:50:11;;;;;;;;;;;;;;;33.56;100.00;100376.22;5055341;28;20018;-71
2023/07/07 09:52:39;;;;;;;;;;;;;;;33.93;100.00;100378.75;5073770;28;19997;-70
2023/07/07 09:58:20;;;;;;;;;;;;;;;33.26;100.00;100371.88;5073398;28;19935;-71
2023/07/07 10:00:47;;;;;;;;;;;;;;;33.31;100.00;100379.25;5088180;28;19935;-71
2023/07/07 10:03:48;;;;;;;;;;;;;;;33.46;100.00;100367.72;5055144;28;19912;-72
2023/07/07 10:09:16;;;;;;;;;;;;;;;33.16;100.00;100350.22;5031301;28;19916;-72
2023/07/07 10:11:42;;;;;;;;;;;;;;;32.96;100.00;100335.88;5030528;28;20299;-71
2023/07/07 10:14:10;;;;;;;;;;;;;;;32.84;100.00;100332.03;5046958;28;19913;-72
2023/07/07 10:16:54;;;;;;;;;;;;;;;32.19;100.00;100310.56;5073092;28;20366;-71
2023/07/07 10:19:19;;;;;;;;;;;;;;;32.53;100.00;100331.25;5088558;28;19912;-72
2023/07/07 10:21:46;;;;;;;;;;;;;;;32.01;100.00;100318.69;5072329;28;20347;-71
2023/07/07 10:27:15;;;;;;;;;;;;;;;32.28;100.00;100326.13;5072967;28;19915;-73
2023/07/07 10:29:42;;;;;;;;;;;;;;;32.71;100.00;100334.41;5072076;28;20382;-72
2023/07/07 10:32:12;;;;;;;;;;;;;;;32.36;100.00;100335.78;5054944;28;19913;-73
2023/07/07 10:37:40;;;;;;;;;;;;;;;31.66;100.00;100329.66;5072724;28;20050;-73
2023/07/07 10:40:12;;;;;;;;;;;;;;;31.99;100.00;100339.09;5072736;28;19966;-73
2023/07/07 10:42:37;;;;;;;;;;;;;;;32.22;100.00;100342.63;5054503;28;19920;-73
2023/07/07 10:48:10;;;;;;;;;;;;;;;32.13;100.00;100343.63;5072592;28;19914;-71
2023/07/07 10:50:39;;;;;;;;;;;;;;;32.29;100.00;100354.09;5072502;28;19924;-71
2023/07/07 10:53:23;;;;;;;;;;;;;;;32.66;100.00;100353.41;5054244;28;19981;-72
2023/07/07 10:55:57;;;;;;;;;;;;;;;32.56;100.00;100336.19;5072506;28;19916;-71
2023/07/07 10:58:28;;;;;;;;;;;;;;;32.07;100.00;100325.09;5054454;28;19969;-71
2023/07/07 11:01:12;;;;;;;;;;;;;;;31.62;100.00;100320.47;5072297;28;19920;-71
2023/07/07 11:04:03;;;;;;;;;;;;;;;32.12;100.00;100317.50;5072670;28;19920;-71
2023/07/07 11:09:58;;;;;;;;;;;;;;;31.77;100.00;100307.44;5072410;28;20057;-71
2023/07/07 11:12:37;;;;;;;;;;;;;;;31.84;100.00;100300.50;5051508;28;19926;-72
2023/07/07 11:15:03;;;;;;;;;;;;;;;32.20;100.00;100305.13;5053950;28;20333;-72
2023/07/07 11:17:31;;;;;;;;;;;;;;;32.34;100.00;100304.38;5072128;28;19947;-72
2023/07/07 11:20:04;;;;;;;;;;;;;;;32.32;100.00;100311.63;5072358;28;19912;-72
2023/07/07 11:22:45;;;;;;;;;;;;;;;32.01;100.00;100297.63;5071943;28;19926;-73
2023/07/07 11:25:25;;;;;;;;;;;;;;;31.95;100.00;100302.78;5087817;28;20284;-73
2023/07/07 11:27:56;;;;;;;;;;;;;;;31.60;100.00;100302.22;5070761;28;19909;-72
2023/07/07 11:30:40;;;;;;;;;;;;;;;32.19;100.00;100313.19;5072418;28;19951;-72
2023/07/07 11:36:14;;;;;;;;;;;;;;;31.58;100.00;100296.31;5072353;28;19920;-73
2023/07/07 11:38:40;;;;;;;;;;;;;;;32.33;100.00;100307.97;5071998;28;19916;-72
2023/07/07 11:41:11;;;;;;;;;;;;;;;32.56;100.00;100308.03;5072340;28;19912;-72
2023/07/07 11:46:47;;;;;;;;;;;;;;;32.91;100.00;100310.03;5072015;28;19966;-72
2023/07/07 11:49:13;;;;;;;;;;;;;;;32.60;100.00;100292.69;5071612;28;20363;-72
2023/07/07 11:51:38;;;;;;;;;;;;;;;32.55;100.00;100293.22;5072249;28;20000;-72
2023/07/07 11:54:17;;;;;;;;;;;;;;;32.69;100.00;100279.28;5087411;28;20295;-72
2023/07/07 11:56:49;;;;;;;;;;;;;;;32.50;100.00;100287.66;5070712;28;19916;-72
2023/07/07 11:59:20;;;;;;;;;;;;;;;32.39;100.00;100280.94;5087820;28;20412;-71
2023/07/07 12:01:48;;;;;;;;;;;;;;;32.46;100.00;100278.47;5087284;28;19920;-72
2023/07/07 12:04:16;;;;;;;;;;;;;;;32.51;100.00;100275.31;5071977;28;20292;-73
2023/07/07 12:06:45;;;;;;;;;;;;;;;32.46;100.00;100277.66;5053311;28;19923;-72
2023/07/07 12:09:11;;;;;;;;;;;;;;;32.35;100.00;100278.84;5071928;28;19920;-73
2023/07/07 12:11:41;;;;;;;;;;;;;;;32.46;100.00;100272.38;5087278;28;19959;-73
2023/07/07 12:14:26;;;;;;;;;;;;;;;33.03;100.00;100284.09;5071684;28;19989;-72
2023/07/07 12:19:56;;;;;;;;;;;;;;;33.21;100.00;100268.75;5071758;28;19962;-72
2023/07/07 12:25:26;;;;;;;;;;;;;;;34.04;100.00;100283.28;5073830;28;19966;-71
2023/07/07 12:27:52;;;;;;;;;;;;;;;33.60;100.00;100271.94;5056968;28;19965;-71
2023/07/07 12:30:27;;;;;;;;;;;;;;;33.43;100.00;100273.13;5074763;28;19916;-72
2023/07/07 12:35:58;;;;;;;;;;;;;;;34.15;100.00;100257.41;5075066;28;19962;-71
2023/07/07 12:38:26;;;;;;;;;;;;;;;34.24;100.00;100257.06;5075173;28;19969;-72
2023/07/07 12:40:56;;;;;;;;;;;;;;;33.75;100.00;100254.28;5090386;28;20342;-71
2023/07/07 12:43:27;;;;;;;;;;;;;;;32.90;100.00;100246.97;5074654;28;19971;-72
2023/07/07 12:45:52;;;;;;;;;;;;;;;33.57;100.00;100264.41;5074916;28;19956;-72
2023/07/07 12:48:19;;;;;;;;;;;;;;;34.48;100.00;100267.31;5056602;28;19959;-71
2023/07/07 12:50:45;;;;;;;;;;;;;;;33.50;100.00;100266.13;5056374;28;19966;-71
2023/07/07 12:53:22;;;;;;;;;;;;;;;32.75;100.00;100265.38;5074642;28;19912;-72
2023/07/07 12:56:00;;;;;;;;;;;;;;;33.65;100.00;100289.88;5056585;28;19935;-73
2023/07/07 13:01:30;;;;;;;;;;;;;;;33.48;100.00;100278.69;5074570;28;19919;-73
2023/07/07 13:03:58;;;;;;;;;;;;;;;34.27;100.00;100288.38;5073977;28;20429;-72
2023/07/07 13:06:23;;;;;;;;;;;;;;;34.70;100.00;100279.50;5090031;28;19970;-70
2023/07/07 13:09:01;;;;;;;;;;;;;;;34.19;100.00;100277.94;5074767;28;19912;-71
2023/07/07 13:11:31;;;;;;;;;;;;;;;34.23;100.00;100273.91;5074334;28;19919;-71
2023/07/07 13:13:57;;;;;;;;;;;;;;;33.84;100.00;100268.19;5056003;28;19924;-71
2023/07/07 13:19:25;;;;;;;;;;;;;;;33.60;100.00;100279.03;5074133;28;20377;-71
2023/07/07 13:21:51;;;;;;;;;;;;;;;33.57;100.00;100274.97;5073430;28;19913;-71
2023/07/07 13:24:19;;;;;;;;;;;;;;;33.20;100.00;100278.47;5074260;28;20003;-71
2023/07/07 13:29:47;;;;;;;;;;;;;;;33.65;100.00;100293.34;5073826;28;20011;-72
2023/07/07 13:32:31;;;;;;;;;;;;;;;34.19;100.00;100287.72;5073763;28;20003;-73
2023/07/07 13:34:58;;;;;;;;;;;;;;;33.49;100.00;100288.25;5073547;28;19920;-72
2023/07/07 13:40:26;;;;;;;;;;;;;;;33.91;100.00;100292.84;5073985;28;19919;-73
2023/07/07 13:42:52;;;;;;;;;;;;;;;34.13;100.00;100294.53;5055303;28;19916;-72
2023/07/07 13:45:19;;;;;;;;;;;;;;;33.81;100.00;100292.31;5055698;28;19924;-73
2023/07/07 13:47:46;;;;;;;;;;;;;;;33.28;100.00;100284.69;5073407;28;20058;-73
2023/07/07 13:50:17;;;;;;;;;;;;;;;33.36;100.00;100292.50;5073455;28;20015;-73
2023/07/07 13:52:44;;;;;;;;;;;;;;;33.68;100.00;100305.34;5055735;28;20290;-73
2023/07/07 13:55:11;;;;;;;;;;;;;;;33.67;100.00;100309.00;5073369;28;19912;-73
2023/07/07 13:57:37;;;;;;;;;;;;;;;30.98;100.00;100284.59;5073109;28;20005;-72
2023/07/07 14:00:02;;;;;;;;;;;;;;;31.31;100.00;100286.19;5055207;28;19916;-74
2023/07/07 14:02:28;;;;;;;;;;;;;;;31.55;100.00;100288.75;5073408;28;20466;-73
2023/07/07 14:04:55;;;;;;;;;;;;;;;32.29;100.00;100290.06;5055603;28;19920;-73
2023/07/07 14:07:21;;;;;;;;;;;;;;;32.16;100.00;100282.75;5073027;28;19919;-74
2023/07/07 14:09:47;;;;;;;;;;;;;;;32.20;100.00;100278.78;5073526;28;20282;-74
2023/07/07 14:12:20;;;;;;;;;;;;;;;31.50;100.00;100271.84;5073099;28;19977;-72
2023/07/07 14:17:48;;;;;;;;;;;;;;;31.44;100.00;100285.69;5073193;28;19914;-73
2023/07/07 14:20:18;;;;;;;;;;;;;;;31.43;100.00;100277.00;5054996;28;20340;-71
2023/07/07 14:22:43;;;;;;;;;;;;;;;31.36;100.00;100269.88;5072574;28;19912;-72
2023/07/07 14:25:14;;;;;;;;;;;;;;;31.91;100.00;100275.94;5054879;28;19913;-71
2023/07/07 14:27:39;;;;;;;;;;;;;;;32.05;100.00;100282.34;5054677;28;19959;-72
2023/07/07 14:30:05;;;;;;;;;;;;;;;31.67;100.00;100275.25;5073050;28;19959;-69
2023/07/07 14:32:39;;;;;;;;;;;;;;;32.86;100.00;100298.41;5054218;28;20345;-68
2023/07/07 14:35:13;;;;;;;;;;;;;;;32.98;100.00;100283.84;4724769;28;10000445;-68
2023/07/07 14:37:45;;;;;;;;;;;;;;;33.22;100.00;100302.03;5113552;28;20006;-69
2023/07/07 14:43:39;;;;;;;;;;;;;;;33.71;100.00;100307.63;5113308;28;20289;-69
2023/07/07 14:46:08;;;;;;;;;;;;;;;32.87;100.00;100294.75;5109884;28;19919;-69
2023/07/07 14:48:43;;;;;;;;;;;;;;;32.59;100.00;100291.03;5112656;28;19912;-68
2023/07/07 14:51:09;;;;;;;;;;;;;;;33.19;100.00;100300.59;5113380;28;19919;-69
2023/07/07 14:56:38;;;;;;;;;;;;;;;33.03;100.00;100292.00;5113305;28;19915;-68
2023/07/07 14:59:15;;;;;;;;;;;;;;;33.85;100.00;100304.94;5094345;28;20049;-69
2023/07/07 15:01:42;;;;;;;;;;;;;;;33.25;100.00;100296.41;5113107;28;19960;-68
2023/07/07 15:04:15;;;;;;;;;;;;;;;33.50;100.00;100300.44;5113170;28;19961;-69
2023/07/07 15:06:47;;;;;;;;;;;;;;;33.16;100.00;100284.28;5113301;28;19919;-68
2023/07/07 15:09:12;;;;;;;;;;;;;;;33.18;100.00;100284.94;5113205;28;19915;-69
2023/07/07 15:14:48;;;;;;;;;;;;;;;33.45;100.00;100297.50;5111310;28;19945;-70
2023/07/07 15:20:18;;;;;;;;;;;;;;;32.54;100.00;100281.06;5113138;28;19915;-70
2023/07/07 15:22:44;;;;;;;;;;;;;;;32.23;100.00;100278.41;5112298;28;19911;-68
2023/07/07 15:25:10;;;;;;;;;;;;;;;32.91;100.00;100296.03;5113652;28;19919;-69
2023/07/07 15:27:35;;;;;;;;;;;;;;;32.64;100.00;100291.34;5113771;28;19950;-70
2023/07/07 15:33:03;;;;;;;;;;;;;;;32.52;100.00;100295.38;5112801;28;19914;-70
2023/07/07 15:35:29;;;;;;;;;;;;;;;32.39;100.00;100298.56;5093919;28;19911;-70
2023/07/07 15:37:58;;;;;;;;;;;;;;;32.36;100.00;100306.81;5094500;28;19969;-68